createdAt,value
2019-03-05T00:04:36.562Z,98554.17
2019-03-05T00:09:40.559Z,98535.63
2019-03-05T00:14:44.502Z,98537.50
2019-03-05T00:19:48.486Z,98567.74
2019-03-05T00:24:59.346Z,98555.53
2019-03-05T00:30:15.561Z,98545.91
2019-03-05T00:35:30.626Z,98554.66
2019-03-05T00:40:52.031Z,98574.71
2019-03-05T00:46:06.046Z,98553.41
2019-03-05T00:51:27.925Z,98572.82
2019-03-05T00:56:42.974Z,98570.19
2019-03-05T01:02:17.016Z,98569.06
2019-03-05T01:07:21.221Z,98587.40
2019-03-05T01:12:25.141Z,98569.66
2019-03-05T01:17:29.106Z,98557.70
2019-03-05T01:22:33.085Z,98554.23
2019-03-05T01:27:36.955Z,98558.10
2019-03-05T01:32:40.901Z,98560.09
2019-03-05T01:37:44.905Z,98561.58
2019-03-05T01:42:48.806Z,98561.40
2019-03-05T01:47:52.906Z,98555.11
2019-03-05T01:52:56.928Z,98564.08
2019-03-05T01:58:00.890Z,98565.74
2019-03-05T02:03:05.836Z,98567.33
2019-03-05T02:08:09.760Z,98572.22
2019-03-05T02:13:13.909Z,98577.02
2019-03-05T02:18:19.677Z,98566.42
2019-03-05T02:23:30.490Z,98563.74
2019-03-05T02:28:44.121Z,98561.76
2019-03-05T02:33:54.489Z,98560.19
2019-03-05T02:39:12.103Z,98555.33
2019-03-05T02:44:28.970Z,98548.47
2019-03-05T02:50:02.395Z,98561.07
2019-03-05T02:55:24.204Z,98553.34
2019-03-05T03:00:28.133Z,98556.95
2019-03-05T03:05:32.113Z,98555.40
2019-03-05T03:10:35.996Z,98562.63
2019-03-05T03:15:39.887Z,98566.23
2019-03-05T03:20:44.293Z,98559.98
2019-03-05T03:25:48.209Z,98560.59
2019-03-05T03:30:52.144Z,98556.12
2019-03-05T03:35:56.062Z,98554.01
2019-03-05T03:40:59.982Z,98559.66
2019-03-05T03:46:04.009Z,98553.65
2019-03-05T03:51:07.961Z,98551.29
2019-03-05T03:56:11.993Z,98553.56
2019-03-05T04:01:16.039Z,98547.61
2019-03-05T04:06:21.009Z,98556.51
2019-03-05T04:11:25.004Z,98567.83
2019-03-05T04:16:28.966Z,98568.70
2019-03-05T04:21:32.817Z,98569.09
2019-03-05T04:26:36.728Z,98565.02
2019-03-05T04:31:40.677Z,98564.16
2019-03-05T04:36:44.769Z,98569.27
2019-03-05T04:41:48.720Z,98569.88
2019-03-05T04:46:52.596Z,98569.69
2019-03-05T04:51:56.523Z,98576.19
2019-03-05T04:57:00.441Z,98589.07
2019-03-05T05:02:04.502Z,98571.70
2019-03-05T05:07:08.452Z,98568.79
2019-03-05T05:12:12.442Z,98568.41
2019-03-05T05:17:16.397Z,98567.53
2019-03-05T05:22:20.562Z,98567.97
2019-03-05T05:27:24.542Z,98559.45
2019-03-05T05:32:28.443Z,98573.64
2019-03-05T05:37:32.370Z,98575.66
2019-03-05T05:42:36.335Z,98575.92
2019-03-05T05:47:40.236Z,98573.16
2019-03-05T05:52:44.137Z,98569.21
2019-03-05T05:57:48.051Z,98572.01
2019-03-05T06:02:51.966Z,98575.08
2019-03-05T06:07:55.956Z,98565.42
2019-03-05T06:12:59.936Z,98560.30
2019-03-05T06:18:03.911Z,98574.66
2019-03-05T06:23:07.895Z,98577.33
2019-03-05T06:28:11.850Z,98577.13
2019-03-05T06:33:15.782Z,98572.12
2019-03-05T06:38:19.814Z,98561.54
2019-03-05T06:43:23.760Z,98562.43
2019-03-05T06:48:27.782Z,98564.48
2019-03-05T06:53:31.822Z,98561.42
2019-03-05T06:58:36.012Z,98568.13
2019-03-05T07:03:39.918Z,98573.26
2019-03-05T07:08:48.713Z,98561.37
2019-03-05T07:13:52.921Z,98565.34
2019-03-05T07:19:16.505Z,98573.25
2019-03-05T07:24:26.191Z,98568.09
2019-03-05T07:29:31.746Z,98559.05
2019-03-05T07:34:35.790Z,98575.80
2019-03-05T07:39:39.729Z,98572.12
2019-03-05T07:44:43.630Z,98572.47
2019-03-05T07:49:47.616Z,98582.13
2019-03-05T07:54:52.437Z,98581.59
2019-03-05T07:59:58.785Z,98588.16
2019-03-05T08:05:02.986Z,98582.67
2019-03-05T08:10:17.872Z,98590.36
2019-03-05T08:15:33.035Z,98600.79
2019-03-05T08:20:43.707Z,98598.17
2019-03-05T08:25:47.686Z,98589.83
2019-03-05T08:30:51.573Z,98590.22
2019-03-05T08:35:55.531Z,98613.87
2019-03-05T08:40:59.441Z,98606.98
2019-03-05T08:46:03.436Z,98612.00
2019-03-05T08:51:07.415Z,98600.48
2019-03-05T08:56:11.415Z,98598.61
2019-03-05T09:01:15.419Z,98585.89
2019-03-05T09:06:19.362Z,98586.75
2019-03-05T09:11:23.433Z,98584.23
2019-03-05T09:16:27.439Z,98579.34
2019-03-05T09:21:31.541Z,98576.14
2019-03-05T09:26:35.790Z,98575.79
2019-03-05T09:31:40.026Z,98575.08
2019-03-05T09:36:51.048Z,98578.44
2019-03-05T09:41:50.680Z,98579.98
2019-03-05T09:46:56.842Z,98583.84
2019-03-05T09:52:00.921Z,98585.22
2019-03-05T09:57:04.893Z,98586.84
2019-03-05T10:02:08.861Z,98582.99
2019-03-05T10:07:18.923Z,98584.66
2019-03-05T10:12:19.600Z,98591.44
2019-03-05T10:17:23.571Z,98579.78
2019-03-05T10:22:27.497Z,98586.77
2019-03-05T10:27:31.451Z,98580.88
2019-03-05T10:32:35.497Z,98572.67
2019-03-05T10:37:39.622Z,98578.08
2019-03-05T10:42:43.682Z,98576.03
2019-03-05T10:47:48.431Z,98572.17
2019-03-05T10:52:52.431Z,98578.58
2019-03-05T10:57:56.730Z,98576.76
2019-03-05T11:03:00.941Z,98575.39
2019-03-05T11:08:05.201Z,98584.31
2019-03-05T11:13:10.160Z,98575.06
2019-03-05T11:18:14.218Z,98555.56
2019-03-05T11:23:18.302Z,98550.63
2019-03-05T11:28:22.407Z,98539.20
2019-03-05T11:33:28.006Z,98542.56
2019-03-05T11:38:32.386Z,98538.44
2019-03-05T11:43:36.516Z,98543.48
2019-03-05T11:48:40.746Z,98533.39
2019-03-05T11:53:44.677Z,98540.52
2019-03-05T11:58:48.620Z,98532.08
2019-03-05T12:03:52.499Z,98532.45
2019-03-05T12:08:56.467Z,98528.97
2019-03-05T12:14:00.465Z,98527.50
2019-03-05T12:19:04.548Z,98524.62
2019-03-05T12:24:08.461Z,98505.23
2019-03-05T12:29:12.457Z,98508.01
2019-03-05T12:34:16.436Z,98515.83
2019-03-05T12:39:21.388Z,98503.45
2019-03-05T12:44:25.410Z,98502.47
2019-03-05T12:49:29.351Z,98488.72
2019-03-05T12:54:33.361Z,98473.78
2019-03-05T12:59:37.498Z,98478.97
2019-03-05T13:04:41.453Z,98474.17
2019-03-05T13:09:45.553Z,98470.56
2019-03-05T13:14:49.676Z,98470.31
2019-03-05T13:19:53.846Z,98452.48
2019-03-05T13:24:57.838Z,98437.44
2019-03-05T13:30:03.789Z,98438.73
2019-03-05T13:35:10.027Z,98437.17
2019-03-05T13:40:16.614Z,98423.69
2019-03-05T13:45:21.455Z,98424.98
2019-03-05T13:50:34.514Z,98411.73
2019-03-05T13:56:04.046Z,98422.70
2019-03-05T14:01:08.722Z,98394.03
2019-03-05T14:06:28.102Z,98384.52
2019-03-05T14:11:32.221Z,98385.23
2019-03-05T14:16:36.351Z,98371.23
2019-03-05T14:21:40.389Z,98365.92
2019-03-05T14:26:44.286Z,98348.13
2019-03-05T14:31:48.186Z,98339.42
2019-03-05T14:36:52.095Z,98341.83
2019-03-05T14:41:56.122Z,98335.34
2019-03-05T14:47:01.566Z,98330.39
2019-03-05T14:52:05.929Z,98325.36
2019-03-05T14:57:09.887Z,98313.55
2019-03-05T15:02:13.909Z,98308.14
2019-03-05T15:07:17.823Z,98287.41
2019-03-05T15:12:21.801Z,98267.92
2019-03-05T15:17:27.341Z,98271.42
2019-03-05T15:22:31.260Z,98247.70
2019-03-05T15:27:35.257Z,98237.12
2019-03-05T15:32:39.316Z,98223.31
2019-03-05T15:37:43.221Z,98214.19
2019-03-05T15:42:47.152Z,98177.63
2019-03-05T15:47:51.133Z,98185.91
2019-03-05T15:52:55.193Z,98178.05
2019-03-05T15:57:59.301Z,98163.87
2019-03-05T16:03:03.291Z,98153.09
2019-03-05T16:08:07.348Z,98144.29
2019-03-05T16:13:15.312Z,98153.33
2019-03-05T16:18:17.380Z,98118.42
2019-03-05T16:23:21.361Z,98099.66
2019-03-05T16:28:25.321Z,98091.70
2019-03-05T16:33:37.063Z,98064.86
2019-03-05T16:38:39.266Z,98071.48
2019-03-05T16:43:43.433Z,98040.31
2019-03-05T16:48:47.651Z,98019.75
2019-03-05T16:53:52.805Z,97998.23
2019-03-05T16:58:56.901Z,97995.59
2019-03-05T17:04:00.864Z,97982.45
2019-03-05T17:09:05.600Z,97966.09
2019-03-05T17:14:09.752Z,97929.86
2019-03-05T17:19:13.868Z,97900.44
2019-03-05T17:24:18.091Z,97896.36
2019-03-05T17:29:22.118Z,97878.52
2019-03-05T17:34:26.100Z,97874.25
2019-03-05T17:39:30.270Z,97869.06
2019-03-05T17:44:34.967Z,97862.36
2019-03-05T17:49:39.053Z,97841.72
2019-03-05T17:54:43.020Z,97837.27
2019-03-05T17:59:47.122Z,97820.27
2019-03-05T18:04:51.135Z,97804.84
2019-03-05T18:09:55.261Z,97789.80
2019-03-05T18:14:59.433Z,97774.59
2019-03-05T18:20:03.647Z,97770.98
2019-03-05T18:25:08.611Z,97767.70
2019-03-05T18:30:14.783Z,97754.10
2019-03-05T18:35:19.114Z,97742.39
2019-03-05T18:40:23.409Z,97769.52
2019-03-05T18:45:28.109Z,97717.70
2019-03-05T18:50:32.201Z,97714.57
2019-03-05T18:55:36.166Z,97715.41
2019-03-05T19:00:40.235Z,97711.08
2019-03-05T19:05:44.245Z,97699.73
2019-03-05T19:10:49.215Z,97680.70
2019-03-05T19:15:53.226Z,97655.17
2019-03-05T19:20:57.352Z,97668.21
2019-03-05T19:26:01.336Z,97684.89
2019-03-05T19:31:05.334Z,97636.00
2019-03-05T19:36:09.325Z,97668.09
2019-03-05T19:41:13.247Z,97643.78
2019-03-05T19:46:17.310Z,97613.80
2019-03-05T19:51:23.561Z,97630.17
2019-03-05T19:56:27.877Z,97615.45
2019-03-05T20:01:31.957Z,97627.16
2019-03-05T20:06:35.915Z,97613.23
2019-03-05T20:11:40.076Z,97588.38
2019-03-05T20:16:46.277Z,97607.19
2019-03-05T20:21:50.346Z,97568.89
2019-03-05T20:26:54.302Z,97552.64
2019-03-05T20:31:58.314Z,97555.45
2019-03-05T20:37:02.335Z,97527.48
2019-03-05T20:42:06.223Z,97547.50
2019-03-05T20:47:10.301Z,97530.36
2019-03-05T20:52:14.326Z,97528.55
2019-03-05T20:57:18.377Z,97520.41
2019-03-05T21:02:22.385Z,97504.19
2019-03-05T21:07:26.375Z,97507.48
2019-03-05T21:12:30.423Z,97561.61
2019-03-05T21:17:34.473Z,97505.64
2019-03-05T21:22:38.606Z,97532.39
2019-03-05T21:27:42.616Z,97486.27
2019-03-05T21:32:46.621Z,97500.04
2019-03-05T21:37:50.771Z,97477.06
2019-03-05T21:42:54.826Z,97515.44
2019-03-05T21:47:58.821Z,97504.38
2019-03-05T21:53:02.859Z,97445.62
2019-03-05T21:58:06.758Z,97467.56
2019-03-05T22:03:10.729Z,97456.82
2019-03-05T22:08:14.667Z,97447.55
2019-03-05T22:13:18.650Z,97465.59
2019-03-05T22:18:22.780Z,97435.92
2019-03-05T22:23:26.893Z,97439.28
2019-03-05T22:28:33.123Z,97427.37
2019-03-05T22:33:37.110Z,97421.88
2019-03-05T22:38:41.221Z,97397.69
2019-03-05T22:43:45.263Z,97411.28
2019-03-05T22:48:49.245Z,97403.19
2019-03-05T22:53:53.371Z,97395.09
2019-03-05T22:58:57.381Z,97383.81
2019-03-05T23:04:01.657Z,97391.43
2019-03-05T23:09:07.566Z,97379.72
2019-03-05T23:14:11.643Z,97359.74
2019-03-05T23:19:15.746Z,97349.52
2019-03-05T23:24:19.859Z,97342.41
2019-03-05T23:29:23.816Z,97319.42
2019-03-05T23:34:27.756Z,97306.55
2019-03-05T23:39:31.781Z,97293.83
2019-03-05T23:44:35.785Z,97289.84
2019-03-05T23:49:39.790Z,97275.84
2019-03-05T23:54:43.955Z,97252.68
2019-03-05T23:59:47.936Z,97237.95
